Time;durP1;ratioP1;P1;durP2;ratioP2;P2;SDS_P1;SDS_P2;PMS_P1;PMS_P2;Temp;Humidity;BMP_temperature;BMP_pressure;BME280_temperature;BME280_humidity;BME280_pressure;Samples;Min_cycle;Max_cycle;Signal;HPM_P1;HPM_P2
2022/06/05 00:02:22;;;;;;;4.13;3.83;;;;;;;20.00;nan;98887.22;4988028;28;20048;-60
2022/06/05 00:05:14;;;;;;;3.78;3.47;;;;;;;19.94;nan;98872.75;4991881;28;20477;-61
2022/06/05 00:07:48;;;;;;;3.85;3.65;;;;;;;19.91;nan;98883.34;4990393;28;20833;-61
2022/06/05 00:10:13;;;;;;;4.05;3.75;;;;;;;20.00;nan;98892.41;4995223;28;20026;-61
2022/06/05 00:13:05;;;;;;;3.47;3.28;;;;;;;19.95;nan;98899.63;4992860;28;20035;-61
2022/06/05 00:15:32;;;;;;;4.38;4.10;;;;;;;19.98;nan;98891.69;4986469;28;20043;-62
2022/06/05 00:17:58;;;;;;;4.07;3.78;;;;;;;19.79;nan;98881.38;4991479;28;20029;-60
2022/06/05 00:20:24;;;;;;;3.50;3.30;;;;;;;19.81;nan;98889.13;4993892;28;20188;-60
2022/06/05 00:22:49;;;;;;;4.55;4.30;;;;;;;19.71;nan;98891.34;4991014;28;20034;-62
2022/06/05 00:25:15;;;;;;;3.92;3.63;;;;;;;19.67;nan;98888.97;4989857;28;20034;-60
2022/06/05 00:27:52;;;;;;;4.65;4.20;;;;;;;19.58;nan;98882.50;4991655;28;20584;-60
2022/06/05 00:30:23;;;;;;;4.68;4.28;;;;;;;19.48;nan;98887.31;4994670;28;20059;-59
2022/06/05 00:32:51;;;;;;;4.40;4.10;;;;;;;19.40;nan;98876.44;4990529;28;20041;-60
2022/06/05 00:35:20;;;;;;;5.65;4.38;;;;;;;19.30;nan;98874.38;5004232;28;20065;-60
2022/06/05 00:38:10;;;;;;;4.65;4.35;;;;;;;19.28;nan;98884.00;4993295;28;20025;-59
2022/06/05 00:40:56;;;;;;;4.28;3.97;;;;;;;19.23;nan;98891.19;4993940;28;20030;-60
2022/06/05 00:43:24;;;;;;;4.72;4.32;;;;;;;19.16;nan;98886.31;4989046;28;20639;-60
2022/06/05 00:45:51;;;;;;;4.97;4.57;;;;;;;19.07;nan;98886.75;4990855;28;20034;-60
2022/06/05 00:48:17;;;;;;;4.88;4.50;;;;;;;19.06;nan;98898.06;4994129;28;20100;-60
2022/06/05 00:50:44;;;;;;;4.88;4.45;;;;;;;18.93;nan;98886.59;4999696;28;20889;-60
2022/06/05 00:53:10;;;;;;;4.63;4.32;;;;;;;18.95;nan;98899.50;4988067;28;20029;-60
2022/06/05 00:55:42;;;;;;;4.72;4.35;;;;;;;18.92;nan;98894.47;4992016;28;20034;-60
2022/06/05 00:58:08;;;;;;;4.65;4.28;;;;;;;18.94;nan;98903.03;4994227;28;20030;-60
2022/06/05 01:00:37;;;;;;;5.97;4.70;;;;;;;18.95;nan;98895.16;4991531;28;20057;-59
2022/06/05 01:03:05;;;;;;;5.15;4.75;;;;;;;19.00;nan;98895.78;4989819;28;20547;-59
2022/06/05 01:05:32;;;;;;;4.75;4.35;;;;;;;19.02;nan;98877.50;4991211;28;20034;-59
2022/06/05 01:07:58;;;;;;;4.85;4.50;;;;;;;19.01;nan;98889.66;4992957;28;20110;-61
2022/06/05 01:10:54;;;;;;;4.88;4.47;;;;;;;18.94;nan;98890.03;4989568;28;20034;-61
2022/06/05 01:13:28;;;;;;;4.90;4.60;;;;;;;18.90;nan;98886.75;4987953;28;20061;-60
2022/06/05 01:16:03;;;;;;;5.85;5.35;;;;;;;18.91;nan;98882.38;4993451;28;20689;-59
2022/06/05 01:18:45;;;;;;;6.47;5.90;;;;;;;18.83;nan;98872.38;4993622;28;20114;-59
2022/06/05 01:21:52;;;;;;;6.15;5.65;;;;;;;18.79;nan;98883.84;4988464;28;20057;-59
2022/06/05 01:25:02;;;;;;;6.07;5.68;;;;;;;18.88;nan;98886.00;4943920;28;20098;-60
2022/06/05 01:27:33;;;;;;;6.63;5.97;;;;;;;18.68;nan;98871.34;4941472;28;20094;-59
2022/06/05 01:30:11;;;;;;;5.80;5.32;;;;;;;18.55;nan;98870.25;4940091;28;20045;-59
2022/06/05 01:33:02;;;;;;;6.05;5.28;;;;;;;18.55;nan;98883.22;4941963;28;20439;-59
2022/06/05 01:35:33;;;;;;;5.43;4.93;;;;;;;18.48;nan;98879.22;4947603;28;20055;-59
2022/06/05 01:38:11;;;;;;;5.20;4.90;;;;;;;18.43;nan;98877.72;4947195;28;20043;-59
2022/06/05 01:40:46;;;;;;;5.35;4.85;;;;;;;18.44;nan;98877.69;4945809;28;20035;-61
2022/06/05 01:43:19;;;;;;;5.63;5.13;;;;;;;18.25;nan;98867.28;4948175;28;20074;-58
2022/06/05 01:45:49;;;;;;;5.20;4.80;;;;;;;18.18;nan;98865.91;4949724;28;20043;-60
2022/06/05 01:48:27;;;;;;;4.82;4.50;;;;;;;18.26;nan;98881.97;4928410;28;20577;-60
2022/06/05 01:51:00;;;;;;;4.43;4.13;;;;;;;18.29;nan;98872.38;4926586;28;20149;-60
2022/06/05 01:53:47;;;;;;;5.30;4.80;;;;;;;18.13;nan;98873.06;4948727;28;20506;-60
2022/06/05 01:56:13;;;;;;;4.50;4.13;;;;;;;18.03;nan;98876.16;4949878;28;20043;-61
2022/06/05 01:58:46;;;;;;;5.38;4.88;;;;;;;17.95;nan;98871.28;4942615;28;20202;-60
2022/06/05 02:01:34;;;;;;;5.50;5.03;;;;;;;17.92;nan;98880.97;4972636;28;20042;-60
2022/06/05 02:04:13;;;;;;;5.30;4.90;;;;;;;17.87;nan;98865.59;4997289;28;20048;-60
2022/06/05 02:06:44;;;;;;;5.20;4.80;;;;;;;17.94;nan;98868.78;4994489;28;20493;-60
2022/06/05 02:09:28;;;;;;;4.97;4.68;;;;;;;17.87;nan;98875.13;4992358;28;20034;-60
2022/06/05 02:11:53;;;;;;;6.00;5.20;;;;;;;17.71;nan;98868.03;4996489;28;20030;-60
2022/06/05 02:14:19;;;;;;;5.55;5.15;;;;;;;17.66;nan;98861.34;4996364;28;20464;-60
2022/06/05 02:16:44;;;;;;;6.00;5.30;;;;;;;17.60;nan;98861.66;4990666;28;20450;-60
2022/06/05 02:19:17;;;;;;;5.47;5.07;;;;;;;17.56;nan;98873.88;4991304;28;20050;-61
2022/06/05 02:21:42;;;;;;;6.05;5.55;;;;;;;17.50;nan;98863.75;4996128;28;20076;-61
2022/06/05 02:24:11;;;;;;;5.60;5.20;;;;;;;17.57;nan;98866.91;4994415;28;20034;-61
2022/06/05 02:26:37;;;;;;;7.53;6.75;;;;;;;17.61;nan;98869.34;4991295;28;20030;-63
2022/06/05 02:29:10;;;;;;;5.97;5.47;;;;;;;17.64;nan;98866.63;4991255;28;20034;-63
2022/06/05 02:32:09;;;;;;;6.55;5.97;;;;;;;17.60;nan;98859.03;4996757;28;20029;-63
2022/06/05 02:34:51;;;;;;;6.70;6.20;;;;;;;17.56;nan;98860.91;4925385;29;20498;-62
2022/06/05 02:37:42;;;;;;;6.60;6.15;;;;;;;17.55;nan;98868.75;4922833;29;20035;-63
2022/06/05 02:40:17;;;;;;;7.13;6.55;;;;;;;17.55;nan;98866.16;4928039;29;20044;-62
2022/06/05 02:43:14;;;;;;;6.07;5.57;;;;;;;17.48;nan;98875.94;4927438;29;20039;-62
2022/06/05 02:45:51;;;;;;;6.88;6.25;;;;;;;17.44;nan;98876.97;4918411;29;20066;-64
2022/06/05 02:48:26;;;;;;;6.30;5.90;;;;;;;17.43;nan;98880.50;4925676;29;20043;-62
2022/06/05 02:50:59;;;;;;;;;;;;;;;17.42;nan;98872.75;4928368;29;20043;-63
2022/06/05 02:53:25;;;;;;;6.90;6.32;;;;;;;17.36;nan;98885.06;4926055;29;19919;-62
2022/06/05 02:55:51;;;;;;;6.30;5.75;;;;;;;17.36;nan;98874.69;4922839;29;20451;-62
2022/06/05 02:58:16;;;;;;;7.35;6.70;;;;;;;17.35;nan;98875.59;4927205;29;20091;-62
2022/06/05 03:03:27;;;;;;;7.15;6.47;;;;;;;17.35;nan;98865.25;4929693;29;20482;-62
2022/06/05 03:03:28;;;;;;;7.22;6.53;;;;;;;17.50;nan;98878.47;4924915;29;20042;-60
2022/06/05 03:05:53;;;;;;;6.88;6.38;;;;;;;17.44;nan;98886.50;4925291;29;20245;-63
2022/06/05 03:08:20;;;;;;;8.10;7.40;;;;;;;17.36;nan;98868.66;4929283;29;20038;-60
2022/06/05 03:10:46;;;;;;;6.78;6.18;;;;;;;17.41;nan;98881.44;4947333;28;20504;-61
2022/06/05 03:13:13;;;;;;;6.97;6.38;;;;;;;17.38;nan;98885.00;4992265;28;20033;-60
2022/06/05 03:15:41;;;;;;;7.47;6.65;;;;;;;17.39;nan;98889.31;4993846;28;20046;-60
2022/06/05 03:18:07;;;;;;;8.50;7.80;;;;;;;17.49;nan;98890.56;4995502;28;20054;-60
2022/06/05 03:20:33;;;;;;;8.05;7.28;;;;;;;17.53;nan;98886.09;4996003;28;20041;-61
2022/06/05 03:22:59;;;;;;;9.07;6.93;;;;;;;17.64;nan;98899.50;4990039;28;20030;-59
2022/06/05 03:25:26;;;;;;;8.00;7.30;;;;;;;17.51;nan;98896.56;4991639;28;20034;-60
2022/06/05 03:27:52;;;;;;;7.47;6.75;;;;;;;17.54;nan;98904.19;4995017;28;20458;-61
2022/06/05 03:30:18;;;;;;;8.07;6.75;;;;;;;17.44;nan;98915.84;4995321;28;20026;-64
2022/06/05 03:32:44;;;;;;;7.53;6.97;;;;;;;17.41;nan;98903.03;4988232;28;20289;-63
2022/06/05 03:35:10;;;;;;;8.88;8.00;;;;;;;17.50;nan;98906.97;4991682;28;20042;-61
2022/06/05 03:37:36;;;;;;;8.18;7.47;;;;;;;17.56;nan;98906.72;4993233;28;20373;-61
2022/06/05 03:40:06;;;;;;;9.25;8.20;;;;;;;17.66;nan;98913.22;4994191;28;20033;-62
2022/06/05 03:42:31;;;;;;;8.55;7.75;;;;;;;17.71;nan;98913.88;4990971;28;20052;-64
2022/06/05 03:44:57;;;;;;;7.88;7.18;;;;;;;17.82;nan;98908.22;4997836;28;20030;-64
2022/06/05 03:47:22;;;;;;;7.65;6.93;;;;;;;17.84;nan;98907.25;4993995;28;20119;-61
2022/06/05 03:49:47;;;;;;;8.80;8.10;;;;;;;17.98;nan;98906.63;4991357;28;20495;-61
2022/06/05 03:52:13;;;;;;;8.20;7.50;;;;;;;18.12;nan;98919.84;4989982;28;20034;-61
2022/06/05 03:54:39;;;;;;;7.75;6.95;;;;;;;18.09;nan;98896.59;4990758;28;20472;-61
2022/06/05 03:57:05;;;;;;;8.82;8.15;;;;;;;18.14;nan;98905.03;4992259;28;20030;-61
2022/06/05 03:59:33;;;;;;;9.15;8.25;;;;;;;18.28;nan;98915.66;4990977;28;20470;-62
2022/06/05 04:01:59;;;;;;;8.48;7.68;;;;;;;18.38;nan;98924.69;4989510;28;20037;-62
2022/06/05 04:04:24;;;;;;;8.32;7.63;;;;;;;18.51;nan;98931.00;4992996;28;20034;-62
2022/06/05 04:06:50;;;;;;;9.60;8.70;;;;;;;18.60;nan;98901.19;4993915;28;20511;-62
2022/06/05 04:09:15;;;;;;;9.30;8.60;;;;;;;18.68;nan;98919.84;4992190;28;20340;-62
2022/06/05 04:11:41;;;;;;;10.55;9.65;;;;;;;18.72;nan;98916.19;4989672;28;20394;-63
2022/06/05 04:14:08;;;;;;;10.40;9.45;;;;;;;18.83;nan;98919.16;4994388;28;20430;-62
2022/06/05 04:16:34;;;;;;;10.25;9.27;;;;;;;18.95;nan;98926.34;4994621;28;20041;-62
2022/06/05 04:19:01;;;;;;;11.98;10.88;;;;;;;18.97;nan;98921.06;4991110;28;20397;-62
2022/06/05 04:21:29;;;;;;;11.77;10.77;;;;;;;18.99;nan;98925.28;4990585;28;20101;-62
2022/06/05 04:23:56;;;;;;;11.93;10.98;;;;;;;19.04;nan;98909.47;4994921;28;20609;-62
2022/06/05 04:26:25;;;;;;;13.00;11.80;;;;;;;19.13;nan;98920.25;4995397;28;20034;-62
2022/06/05 04:28:53;;;;;;;11.98;10.98;;;;;;;19.20;nan;98906.94;4990415;28;20072;-62
2022/06/05 04:31:28;;;;;;;12.85;11.68;;;;;;;19.35;nan;98904.41;4990819;28;20037;-62
2022/06/05 04:33:56;;;;;;;12.52;11.45;;;;;;;19.48;nan;98912.47;4992789;28;20058;-62
2022/06/05 04:36:22;;;;;;;12.43;11.32;;;;;;;19.55;nan;98900.88;4990271;28;20392;-62
2022/06/05 04:38:48;;;;;;;12.88;11.73;;;;;;;19.62;nan;98891.81;4989074;28;20034;-62
2022/06/05 04:41:14;;;;;;;12.43;11.32;;;;;;;19.84;nan;98909.75;4992822;28;20037;-62
2022/06/05 04:43:40;;;;;;;13.27;12.18;;;;;;;19.95;nan;98904.81;4992462;28;20045;-62
2022/06/05 04:46:07;;;;;;;13.02;11.85;;;;;;;20.13;nan;98897.81;4992504;28;20027;-62
2022/06/05 04:48:33;;;;;;;13.65;12.45;;;;;;;20.24;nan;98913.72;4987730;28;20034;-62
2022/06/05 04:50:59;;;;;;;13.15;11.95;;;;;;;20.41;nan;98908.47;4993059;28;20038;-62
2022/06/05 04:53:25;;;;;;;12.68;11.40;;;;;;;20.55;nan;98903.34;4992094;28;20041;-63
2022/06/05 04:55:50;;;;;;;13.77;12.68;;;;;;;20.26;nan;98891.88;4991495;28;20041;-63
2022/06/05 04:58:16;;;;;;;13.70;12.50;;;;;;;20.45;nan;98900.38;4988920;28;20038;-63
2022/06/05 05:00:41;;;;;;;14.50;13.00;;;;;;;20.63;nan;98901.13;4993410;28;20034;-62
2022/06/05 05:03:08;;;;;;;14.80;13.30;;;;;;;20.61;nan;98891.75;4994244;28;20041;-62
2022/06/05 05:05:34;;;;;;;13.40;12.27;;;;;;;20.64;nan;98895.00;4990230;28;20072;-62
2022/06/05 05:08:00;;;;;;;13.30;12.13;;;;;;;20.71;nan;98887.72;4988495;28;20480;-63
2022/06/05 05:10:25;;;;;;;14.25;12.93;;;;;;;20.80;nan;98880.19;4993511;28;20377;-63
2022/06/05 05:12:52;;;;;;;14.05;12.95;;;;;;;20.85;nan;98899.03;4993579;28;20563;-63
2022/06/05 05:15:18;;;;;;;13.32;12.13;;;;;;;20.97;nan;98895.72;4990459;28;20030;-62
2022/06/05 05:17:43;;;;;;;13.98;12.77;;;;;;;21.16;nan;98889.50;5004329;28;20046;-63
2022/06/05 05:20:09;;;;;;;13.85;12.75;;;;;;;21.15;nan;98893.03;5007405;28;20038;-63
2022/06/05 05:22:37;;;;;;;13.60;12.45;;;;;;;21.29;nan;98893.06;4993969;28;20061;-63
2022/06/05 05:25:05;;;;;;;13.48;12.07;;;;;;;21.33;nan;98903.25;4990394;28;20038;-62
2022/06/05 05:27:31;;;;;;;12.90;11.70;;;;;;;21.42;nan;98894.88;4989856;28;20959;-63
2022/06/05 05:29:57;;;;;;;14.40;13.13;;;;;;;21.45;nan;98903.44;4996896;28;20081;-63
2022/06/05 05:32:22;;;;;;;14.88;13.52;;;;;;;21.49;nan;98894.50;4992462;28;20030;-62
2022/06/05 05:34:48;;;;;;;13.13;12.02;;;;;;;21.63;nan;98897.16;4985391;28;20062;-62
2022/06/05 05:37:13;;;;;;;13.82;12.73;;;;;;;21.55;nan;98895.00;4991301;28;20038;-63
2022/06/05 05:42:23;;;;;;;13.65;12.35;;;;;;;21.63;nan;98871.88;4991296;28;20467;-63
2022/06/05 05:44:51;;;;;;;12.52;11.43;;;;;;;21.80;nan;98879.53;4988470;28;20030;-63
2022/06/05 05:47:21;;;;;;;13.40;12.23;;;;;;;21.84;nan;98875.81;4991308;28;20404;-63
2022/06/05 05:49:54;;;;;;;12.95;11.77;;;;;;;21.98;nan;98874.16;4992954;28;20073;-62
2022/06/05 05:52:20;;;;;;;16.55;12.00;;;;;;;22.03;nan;98878.16;4989346;28;20030;-63
2022/06/05 05:54:45;;;;;;;13.18;12.00;;;;;;;21.80;nan;98876.09;4987570;28;20041;-63
2022/06/05 05:57:11;;;;;;;12.77;11.68;;;;;;;21.80;nan;98869.09;4992324;28;20030;-63
2022/06/05 05:59:36;;;;;;;13.80;12.50;;;;;;;21.77;nan;98881.47;4992709;28;20461;-62
2022/06/05 06:02:03;;;;;;;12.20;11.20;;;;;;;21.71;nan;98880.09;4988437;28;20041;-63
2022/06/05 06:04:28;;;;;;;13.50;12.27;;;;;;;21.76;nan;98877.22;4988685;28;20038;-63
2022/06/05 06:06:54;;;;;;;13.07;11.98;;;;;;;21.92;nan;98877.09;4992364;28;20034;-63
2022/06/05 06:09:20;;;;;;;14.77;13.45;;;;;;;21.98;nan;98872.38;4992254;28;20027;-62
2022/06/05 06:11:46;;;;;;;13.57;12.48;;;;;;;22.27;nan;98878.44;4987233;28;20026;-62
2022/06/05 06:14:11;;;;;;;12.77;11.75;;;;;;;22.50;nan;98877.78;4989809;28;20113;-63
2022/06/05 06:16:37;;;;;;;13.30;12.00;;;;;;;22.46;nan;98873.69;4991227;28;20216;-63
2022/06/05 06:19:03;;;;;;;13.65;11.68;;;;;;;22.76;nan;98882.22;4992768;28;20042;-62
2022/06/05 06:21:29;;;;;;;13.57;12.35;;;;;;;22.88;nan;98879.75;4988129;28;20045;-63
2022/06/05 06:23:54;;;;;;;13.13;12.02;;;;;;;22.84;nan;98875.66;4996584;28;20038;-62
2022/06/05 06:26:20;;;;;;;14.35;13.07;;;;;;;22.61;nan;98861.44;4996470;28;20044;-62
2022/06/05 06:28:45;;;;;;;13.10;12.00;;;;;;;22.54;nan;98874.06;4994773;28;20039;-62
2022/06/05 06:31:14;;;;;;;13.20;12.00;;;;;;;22.56;nan;98864.34;4992010;28;20045;-62
2022/06/05 06:33:40;;;;;;;14.20;12.98;;;;;;;22.51;nan;98871.66;4994253;28;20057;-62
2022/06/05 06:36:09;;;;;;;13.73;12.43;;;;;;;22.53;nan;98874.16;4996758;28;20487;-62
2022/06/05 06:38:34;;;;;;;15.40;14.05;;;;;;;22.52;nan;98868.09;4992631;28;20473;-62
2022/06/05 06:41:02;;;;;;;23.02;13.43;;;;;;;22.48;nan;98871.00;4991261;28;20117;-62
2022/06/05 06:43:28;;;;;;;12.88;11.98;;;;;;;22.33;nan;98865.81;4993867;28;20501;-62
2022/06/05 06:45:55;;;;;;;13.05;11.95;;;;;;;22.59;nan;98873.75;4996052;28;20240;-62
2022/06/05 06:48:21;;;;;;;13.55;12.35;;;;;;;22.50;nan;98869.13;4993112;28;20041;-62
2022/06/05 06:50:46;;;;;;;13.60;12.43;;;;;;;22.46;nan;98873.69;4991173;28;20076;-62
2022/06/05 06:53:12;;;;;;;13.50;12.32;;;;;;;22.40;nan;98857.59;4994671;28;20034;-62
2022/06/05 06:55:38;;;;;;;11.73;10.80;;;;;;;22.46;nan;98847.56;4996364;28;20141;-62
2022/06/05 06:58:03;;;;;;;13.55;12.38;;;;;;;22.57;nan;98852.97;4992259;28;20535;-62
2022/06/05 07:00:29;;;;;;;14.25;13.05;;;;;;;22.63;nan;98860.41;4990066;28;20044;-63
2022/06/05 07:02:54;;;;;;;13.90;12.70;;;;;;;22.86;nan;98864.19;4995089;28;20475;-62
2022/06/05 07:05:20;;;;;;;15.73;14.27;;;;;;;22.53;nan;98861.09;4996118;28;20045;-62
2022/06/05 07:07:46;;;;;;;13.98;12.77;;;;;;;22.60;nan;98852.75;4991083;28;20045;-62
2022/06/05 07:10:11;;;;;;;15.15;13.85;;;;;;;22.87;nan;98844.09;4989976;28;20173;-62
2022/06/05 07:12:37;;;;;;;15.52;14.07;;;;;;;22.68;nan;98867.94;4996425;28;20042;-62
2022/06/05 07:15:04;;;;;;;15.30;14.00;;;;;;;22.67;nan;98861.88;4993998;28;20038;-62
2022/06/05 07:17:30;;;;;;;15.32;13.93;;;;;;;22.71;nan;98857.31;4990168;28;20093;-62
2022/06/05 07:19:55;;;;;;;16.75;15.18;;;;;;;22.82;nan;98844.41;4991610;28;20464;-62
2022/06/05 07:22:20;;;;;;;15.10;13.63;;;;;;;23.09;nan;98852.19;5010540;28;20514;-62
2022/06/05 07:24:46;;;;;;;15.57;14.15;;;;;;;22.87;nan;98851.94;4991824;28;20053;-62
2022/06/05 07:27:11;;;;;;;16.08;14.68;;;;;;;22.85;nan;98864.28;4989679;28;20037;-62
2022/06/05 07:29:36;;;;;;;16.67;15.27;;;;;;;22.52;nan;98841.13;4991474;28;20492;-62
2022/06/05 07:32:02;;;;;;;15.48;13.98;;;;;;;22.48;nan;98844.88;4994578;28;20030;-62
2022/06/05 07:34:27;;;;;;;16.20;14.43;;;;;;;22.53;nan;98848.84;4991170;28;20612;-62
2022/06/05 07:36:53;;;;;;;14.20;13.00;;;;;;;22.52;nan;98847.19;4987274;28;20038;-62
2022/06/05 07:39:18;;;;;;;14.13;12.88;;;;;;;22.56;nan;98833.00;4992676;28;20030;-62
2022/06/05 07:41:44;;;;;;;15.70;14.18;;;;;;;22.53;nan;98838.38;4995745;28;20030;-62
2022/06/05 07:44:09;;;;;;;13.68;12.48;;;;;;;22.55;nan;98840.91;4993057;28;20124;-62
2022/06/05 07:46:36;;;;;;;14.82;13.52;;;;;;;22.51;nan;98835.06;4988279;28;20501;-62
2022/06/05 07:49:03;;;;;;;13.05;12.00;;;;;;;22.71;nan;98855.53;4992127;28;20502;-62
2022/06/05 07:54:27;;;;;;;13.38;12.25;;;;;;;22.88;nan;98837.91;4992462;28;20044;-63
2022/06/05 07:56:58;;;;;;;13.23;12.05;;;;;;;22.92;nan;98835.00;4991879;28;20073;-62
2022/06/05 07:59:28;;;;;;;13.60;12.50;;;;;;;22.87;nan;98826.66;5010398;28;20133;-62
2022/06/05 08:01:54;;;;;;;15.48;14.07;;;;;;;22.73;nan;98824.09;4994242;28;20041;-63
2022/06/05 08:04:19;;;;;;;14.07;12.88;;;;;;;23.08;nan;98835.69;4989154;28;20585;-61
2022/06/05 08:06:45;;;;;;;14.32;13.05;;;;;;;23.13;nan;98835.34;4991539;28;20503;-63
2022/06/05 08:09:10;;;;;;;14.00;12.70;;;;;;;23.26;nan;98840.59;4994805;28;20374;-64
2022/06/05 08:11:36;;;;;;;15.25;13.93;;;;;;;22.94;nan;98829.69;4993292;28;20038;-61
2022/06/05 08:14:03;;;;;;;14.32;13.10;;;;;;;23.24;nan;98838.09;5003548;28;20628;-64
2022/06/05 08:16:29;;;;;;;16.02;14.63;;;;;;;23.28;nan;98834.34;4991655;28;20631;-62
2022/06/05 08:18:55;;;;;;;14.80;13.52;;;;;;;23.47;nan;98826.94;5009491;28;20041;-61
2022/06/05 08:21:25;;;;;;;15.18;13.77;;;;;;;23.67;nan;98828.19;4992651;28;20035;-63
2022/06/05 08:23:51;;;;;;;14.50;13.20;;;;;;;23.57;nan;98812.28;4990316;28;20125;-64
2022/06/05 08:26:16;;;;;;;15.55;14.00;;;;;;;23.56;nan;98820.22;4991859;28;20071;-63
2022/06/05 08:28:41;;;;;;;12.90;11.80;;;;;;;23.67;nan;98813.34;4996225;28;20069;-63
2022/06/05 08:31:08;;;;;;;12.30;11.10;;;;;;;23.66;nan;98818.66;4991095;28;20038;-63
2022/06/05 08:33:34;;;;;;;12.27;11.38;;;;;;;23.51;nan;98812.69;4997294;28;20189;-63
2022/06/05 08:36:00;;;;;;;11.50;10.68;;;;;;;23.67;nan;98812.50;4992076;28;20045;-63
2022/06/05 08:41:28;;;;;;;12.48;11.45;;;;;;;23.57;nan;98800.97;4989379;28;20049;-62
2022/06/05 08:44:01;;;;;;;12.32;11.13;;;;;;;23.65;nan;98803.91;4987256;28;20166;-63
2022/06/05 08:46:55;;;;;;;10.90;10.00;;;;;;;23.90;nan;98803.00;4992905;28;20030;-62
2022/06/05 08:49:27;;;;;;;11.15;10.10;;;;;;;23.93;nan;98789.72;4992708;28;20269;-62
2022/06/05 08:51:58;;;;;;;12.38;11.20;;;;;;;24.00;nan;98802.28;4989463;28;20113;-63
2022/06/05 08:54:42;;;;;;;12.25;11.13;;;;;;;24.19;nan;98803.63;4991022;28;20084;-62
2022/06/05 08:57:20;;;;;;;10.80;9.90;;;;;;;24.36;nan;98797.97;4993034;28;20128;-62
2022/06/05 08:59:51;;;;;;;11.70;10.60;;;;;;;24.46;nan;98797.22;4990000;28;20486;-62
2022/06/05 09:02:23;;;;;;;10.52;9.73;;;;;;;24.44;nan;98788.59;4987630;28;20026;-62
2022/06/05 09:04:56;;;;;;;13.70;12.52;;;;;;;24.41;nan;98786.22;4994156;28;20129;-62
2022/06/05 09:07:29;;;;;;;12.27;11.15;;;;;;;24.60;nan;98784.88;4994664;28;20034;-62
2022/06/05 09:10:03;;;;;;;11.50;10.50;;;;;;;24.55;nan;98787.84;4990801;28;20038;-62
2022/06/05 09:13:01;;;;;;;12.52;11.32;;;;;;;24.57;nan;98778.91;4988815;28;20092;-63
2022/06/05 09:15:39;;;;;;;9.90;9.10;;;;;;;24.69;nan;98777.19;4992659;28;20038;-64
2022/06/05 09:18:14;;;;;;;11.13;10.25;;;;;;;24.60;nan;98777.00;4991473;28;20038;-63
2022/06/05 09:21:05;;;;;;;10.18;9.27;;;;;;;25.01;nan;98780.03;4988271;28;20038;-64
2022/06/05 09:23:55;;;;;;;10.60;9.80;;;;;;;25.16;nan;98764.94;4992457;28;20038;-61
2022/06/05 09:26:43;;;;;;;10.45;9.43;;;;;;;24.88;nan;98760.91;4993350;28;20152;-61
2022/06/05 09:29:15;;;;;;;10.02;9.13;;;;;;;25.32;nan;98771.50;4989387;28;20521;-62
2022/06/05 09:32:09;;;;;;;10.68;9.93;;;;;;;25.24;nan;98767.78;4989579;28;20034;-62
2022/06/05 09:34:56;;;;;;;11.43;10.55;;;;;;;25.36;nan;98767.69;4983246;28;20046;-62
2022/06/05 09:37:52;;;;;;;8.85;8.25;;;;;;;25.06;nan;98761.31;4988740;28;20050;-62
2022/06/05 09:40:28;;;;;;;9.27;8.60;;;;;;;25.45;nan;98774.84;4988877;28;20046;-62
2022/06/05 09:43:25;;;;;;;9.38;8.57;;;;;;;25.62;nan;98759.59;4991270;28;20033;-63
2022/06/05 09:46:15;;;;;;;8.55;7.85;;;;;;;25.87;nan;98765.44;4990980;28;20038;-62
2022/06/05 09:48:43;;;;;;;9.35;8.65;;;;;;;26.06;nan;98772.69;4989063;28;20514;-62
2022/06/05 09:51:13;;;;;;;9.50;8.63;;;;;;;26.09;nan;98776.88;4991106;28;20042;-63
2022/06/05 09:53:54;;;;;;;13.32;12.23;;;;;;;25.92;nan;98771.16;4992809;28;20093;-62
2022/06/05 09:59:33;;;;;;;8.73;7.93;;;;;;;26.02;nan;98765.16;4992655;28;20124;-62
2022/06/05 10:02:01;;;;;;;9.77;8.93;;;;;;;26.14;nan;98772.09;4997220;28;20052;-62
2022/06/05 10:04:32;;;;;;;8.30;7.72;;;;;;;26.25;nan;98767.66;4995429;28;20201;-62
2022/06/05 10:07:06;;;;;;;8.77;8.18;;;;;;;26.59;nan;98746.50;4993754;28;20041;-62
2022/06/05 10:09:35;;;;;;;7.47;6.97;;;;;;;26.61;nan;98747.19;4994087;28;20037;-64
2022/06/05 10:12:11;;;;;;;9.18;8.45;;;;;;;26.82;nan;98753.28;4996862;28;20165;-63
2022/06/05 10:14:50;;;;;;;8.27;7.65;;;;;;;26.98;nan;98745.84;4994956;28;20085;-63
2022/06/05 10:17:15;;;;;;;8.45;7.85;;;;;;;26.74;nan;98748.69;4991523;28;20065;-62
2022/06/05 10:20:08;;;;;;;7.30;6.80;;;;;;;26.31;nan;98740.00;4994984;28;20050;-63
2022/06/05 10:22:39;;;;;;;6.72;6.22;;;;;;;26.36;nan;98736.06;5013285;28;20523;-63
2022/06/05 10:25:14;;;;;;;7.30;6.80;;;;;;;26.72;nan;98731.38;4992560;28;20486;-63
2022/06/05 10:27:49;;;;;;;8.50;7.60;;;;;;;26.87;nan;98737.16;4992567;28;20036;-65
2022/06/05 10:30:17;;;;;;;8.32;7.75;;;;;;;27.01;nan;98732.41;4996731;28;20396;-62
2022/06/05 10:32:52;;;;;;;8.10;7.50;;;;;;;26.97;nan;98723.13;4995289;28;20040;-61
2022/06/05 10:35:24;;;;;;;8.02;7.25;;;;;;;26.99;nan;98720.38;4992178;28;20125;-64
2022/06/05 10:38:25;;;;;;;8.10;7.50;;;;;;;27.16;nan;98725.84;4992736;28;20496;-61
2022/06/05 10:40:58;;;;;;;7.88;7.28;;;;;;;27.44;nan;98726.94;4995889;28;20041;-63
2022/06/05 10:43:30;;;;;;;7.78;7.00;;;;;;;27.43;nan;98724.44;4991827;28;20583;-63
2022/06/05 10:45:57;;;;;;;6.50;6.00;;;;;;;27.34;nan;98731.34;4990290;28;20046;-63
2022/06/05 10:48:38;;;;;;;6.43;5.95;;;;;;;27.77;nan;98725.00;4997743;28;20046;-63
2022/06/05 10:51:14;;;;;;;7.93;7.40;;;;;;;28.04;nan;98718.13;4996918;28;20063;-63
2022/06/05 10:54:17;;;;;;;7.38;6.88;;;;;;;28.11;nan;98724.56;4990597;28;20703;-63
2022/06/05 10:56:54;;;;;;;8.88;8.27;;;;;;;28.50;nan;98706.94;4993654;28;20511;-63
2022/06/05 10:59:29;;;;;;;8.77;8.18;;;;;;;28.76;nan;98707.22;4995923;28;20061;-61
2022/06/05 11:02:01;;;;;;;9.20;8.50;;;;;;;28.97;nan;98712.31;4990525;28;20492;-63
2022/06/05 11:04:59;;;;;;;9.80;8.85;;;;;;;29.34;nan;98712.34;4990987;28;20097;-63
2022/06/05 11:07:55;;;;;;;9.93;9.23;;;;;;;29.74;nan;98704.94;4975573;28;20041;-64
2022/06/05 11:13:42;;;;;;;9.88;9.18;;;;;;;29.73;nan;98698.00;4990839;28;20115;-63
2022/06/05 11:16:39;;;;;;;9.82;9.13;;;;;;;29.45;nan;98691.84;4995413;28;20053;-63
2022/06/05 11:19:38;;;;;;;12.20;11.25;;;;;;;29.89;nan;98703.47;4988584;28;20986;-64
2022/06/05 11:22:09;;;;;;;10.23;9.52;;;;;;;29.96;nan;98706.34;4990926;28;20047;-64
2022/06/05 11:24:43;;;;;;;9.45;8.85;;;;;;;29.68;nan;98692.31;4991727;28;20045;-62
2022/06/05 11:27:14;;;;;;;;;;;;;;;30.06;nan;98699.19;4995012;28;20406;-63
2022/06/05 11:30:03;;;;;;;9.30;8.38;;;;;;;30.16;nan;98694.66;4993420;28;19955;-64
2022/06/05 11:32:43;;;;;;;10.07;9.38;;;;;;;30.28;nan;98682.03;4993568;28;20054;-62
2022/06/05 11:35:11;;;;;;;9.05;8.35;;;;;;;30.55;nan;98679.34;4994342;28;20058;-65
2022/06/05 11:37:45;;;;;;;9.57;8.85;;;;;;;30.77;nan;98683.25;4993650;28;20069;-65
2022/06/05 11:40:22;;;;;;;11.77;8.20;;;;;;;30.34;nan;98671.66;4990894;28;20236;-62
2022/06/05 11:43:15;;;;;;;8.40;7.80;;;;;;;30.41;nan;98663.97;4991556;28;20038;-63
2022/06/05 11:45:43;;;;;;;10.90;10.00;;;;;;;30.47;nan;98666.00;4992715;28;20050;-62
2022/06/05 11:48:19;;;;;;;8.93;8.40;;;;;;;30.27;nan;98643.34;4991898;28;20049;-62
2022/06/05 11:50:56;;;;;;;8.38;7.78;;;;;;;30.54;nan;98653.84;4990067;28;20091;-62
2022/06/05 11:53:33;;;;;;;7.43;6.93;;;;;;;30.67;nan;98650.78;4993333;28;20091;-61
2022/06/05 11:56:14;;;;;;;7.63;7.13;;;;;;;30.35;nan;98646.88;4996842;28;20044;-59
2022/06/05 11:58:46;;;;;;;7.18;6.68;;;;;;;29.99;nan;98633.84;4990871;28;20034;-59
2022/06/05 12:01:17;;;;;;;12.90;12.00;;;;;;;30.27;nan;98635.38;4992033;28;20212;-61
2022/06/05 12:03:54;;;;;;;8.73;8.15;;;;;;;30.26;nan;98631.91;4994664;28;20125;-61
2022/06/05 12:06:29;;;;;;;11.98;11.07;;;;;;;30.32;nan;98625.19;4994171;28;20041;-61
2022/06/05 12:09:03;;;;;;;36.38;33.08;;;;;;;30.17;nan;98630.19;4989220;28;20145;-61
2022/06/05 12:11:35;;;;;;;12.77;10.52;;;;;;;30.22;nan;98624.44;4989395;28;20042;-61
2022/06/05 12:14:25;;;;;;;6.90;6.22;;;;;;;30.12;nan;98618.41;4993671;28;20475;-61
2022/06/05 12:17:16;;;;;;;18.00;16.30;;;;;;;30.20;nan;98623.78;4989843;28;20121;-62
2022/06/05 12:19:59;;;;;;;14.95;12.20;;;;;;;30.68;nan;98610.09;4989872;28;20406;-62
2022/06/05 12:22:37;;;;;;;10.13;9.13;;;;;;;30.62;nan;98595.66;4989668;28;20593;-62